sensor_id;sensor_type;location;lat;lon;timestamp;temperature;humidity
5278;DHT22;2662;51.194;6.614;2023-05-07T00:01:25;17.90;99.90
5278;DHT22;2662;51.194;6.614;2023-05-07T00:03:54;17.90;99.90
5278;DHT22;2662;51.194;6.614;2023-05-07T00:06:22;17.90;99.90
5278;DHT22;2662;51.194;6.614;2023-05-07T00:08:51;17.80;99.90
5278;DHT22;2662;51.194;6.614;2023-05-07T00:11:18;17.90;99.90
5278;DHT22;2662;51.194;6.614;2023-05-07T00:13:47;17.90;99.90
5278;DHT22;2662;51.194;6.614;2023-05-07T00:16:15;17.80;99.90
5278;DHT22;2662;51.194;6.614;2023-05-07T00:18:44;17.90;99.90
5278;DHT22;2662;51.194;6.614;2023-05-07T00:21:13;17.90;99.90
5278;DHT22;2662;51.194;6.614;2023-05-07T00:23:43;17.90;99.90
5278;DHT22;2662;51.194;6.614;2023-05-07T00:26:11;17.90;99.90
5278;DHT22;2662;51.194;6.614;2023-05-07T00:28:39;17.90;99.90
5278;DHT22;2662;51.194;6.614;2023-05-07T00:31:07;17.80;99.90
5278;DHT22;2662;51.194;6.614;2023-05-07T00:33:36;17.80;99.90
5278;DHT22;2662;51.194;6.614;2023-05-07T00:36:05;17.80;99.90
5278;DHT22;2662;51.194;6.614;2023-05-07T00:38:33;17.80;99.90
5278;DHT22;2662;51.194;6.614;2023-05-07T00:41:02;17.80;99.90
5278;DHT22;2662;51.194;6.614;2023-05-07T00:43:30;17.80;99.90
5278;DHT22;2662;51.194;6.614;2023-05-07T00:45:58;17.80;99.90
5278;DHT22;2662;51.194;6.614;2023-05-07T00:48:25;17.80;99.90
5278;DHT22;2662;51.194;6.614;2023-05-07T00:50:55;17.70;99.90
5278;DHT22;2662;51.194;6.614;2023-05-07T00:53:25;17.70;99.90
5278;DHT22;2662;51.194;6.614;2023-05-07T00:55:53;17.70;99.90
5278;DHT22;2662;51.194;6.614;2023-05-07T00:58:23;17.60;99.90
5278;DHT22;2662;51.194;6.614;2023-05-07T01:00:51;17.60;99.90
5278;DHT22;2662;51.194;6.614;2023-05-07T01:03:19;17.60;99.90
5278;DHT22;2662;51.194;6.614;2023-05-07T01:05:49;17.60;99.90
5278;DHT22;2662;51.194;6.614;2023-05-07T01:08:19;17.70;99.90
5278;DHT22;2662;51.194;6.614;2023-05-07T01:10:48;17.60;99.90
5278;DHT22;2662;51.194;6.614;2023-05-07T01:13:16;17.60;99.90
5278;DHT22;2662;51.194;6.614;2023-05-07T01:15:44;17.60;99.90
5278;DHT22;2662;51.194;6.614;2023-05-07T01:18:12;17.70;99.90
5278;DHT22;2662;51.194;6.614;2023-05-07T01:20:42;17.50;99.90
5278;DHT22;2662;51.194;6.614;2023-05-07T01:23:11;17.60;99.90
5278;DHT22;2662;51.194;6.614;2023-05-07T01:25:39;17.50;99.90
5278;DHT22;2662;51.194;6.614;2023-05-07T01:28:07;17.50;99.90
5278;DHT22;2662;51.194;6.614;2023-05-07T01:30:35;17.40;99.90
5278;DHT22;2662;51.194;6.614;2023-05-07T01:33:06;17.30;99.90
5278;DHT22;2662;51.194;6.614;2023-05-07T01:35:38;17.30;99.90
5278;DHT22;2662;51.194;6.614;2023-05-07T01:38:07;17.20;99.90
5278;DHT22;2662;51.194;6.614;2023-05-07T01:40:37;17.20;99.90
5278;DHT22;2662;51.194;6.614;2023-05-07T01:43:05;17.20;99.90
5278;DHT22;2662;51.194;6.614;2023-05-07T01:45:35;17.20;99.90
5278;DHT22;2662;51.194;6.614;2023-05-07T01:48:03;17.10;99.90
5278;DHT22;2662;51.194;6.614;2023-05-07T01:50:33;17.10;99.90
5278;DHT22;2662;51.194;6.614;2023-05-07T01:53:01;17.10;99.90
5278;DHT22;2662;51.194;6.614;2023-05-07T01:55:29;17.10;99.90
5278;DHT22;2662;51.194;6.614;2023-05-07T01:57:59;17.20;99.90
5278;DHT22;2662;51.194;6.614;2023-05-07T02:00:27;17.10;99.90
5278;DHT22;2662;51.194;6.614;2023-05-07T02:02:55;17.10;99.90
5278;DHT22;2662;51.194;6.614;2023-05-07T02:05:22;17.00;99.90
5278;DHT22;2662;51.194;6.614;2023-05-07T02:07:51;17.00;99.90
5278;DHT22;2662;51.194;6.614;2023-05-07T02:10:18;17.00;99.90
5278;DHT22;2662;51.194;6.614;2023-05-07T02:12:46;17.00;99.90
5278;DHT22;2662;51.194;6.614;2023-05-07T02:15:16;17.00;99.90
5278;DHT22;2662;51.194;6.614;2023-05-07T02:17:59;17.00;99.90
5278;DHT22;2662;51.194;6.614;2023-05-07T02:20:27;17.00;99.90
5278;DHT22;2662;51.194;6.614;2023-05-07T02:22:55;17.00;99.90
5278;DHT22;2662;51.194;6.614;2023-05-07T02:25:22;17.00;99.90
5278;DHT22;2662;51.194;6.614;2023-05-07T02:27:49;16.90;99.90
5278;DHT22;2662;51.194;6.614;2023-05-07T02:30:18;16.90;99.90
5278;DHT22;2662;51.194;6.614;2023-05-07T02:32:47;16.90;99.90
5278;DHT22;2662;51.194;6.614;2023-05-07T02:35:14;16.90;99.90
5278;DHT22;2662;51.194;6.614;2023-05-07T02:37:41;16.80;99.90
5278;DHT22;2662;51.194;6.614;2023-05-07T02:40:10;16.80;99.90
5278;DHT22;2662;51.194;6.614;2023-05-07T02:42:37;16.70;99.90
5278;DHT22;2662;51.194;6.614;2023-05-07T02:45:06;16.70;99.90
5278;DHT22;2662;51.194;6.614;2023-05-07T02:47:36;16.70;99.90
5278;DHT22;2662;51.194;6.614;2023-05-07T02:50:04;16.70;99.90
5278;DHT22;2662;51.194;6.614;2023-05-07T02:52:31;16.60;99.90
5278;DHT22;2662;51.194;6.614;2023-05-07T02:54:59;16.60;99.90
5278;DHT22;2662;51.194;6.614;2023-05-07T02:57:27;16.50;99.90
5278;DHT22;2662;51.194;6.614;2023-05-07T02:59:54;16.50;99.90
5278;DHT22;2662;51.194;6.614;2023-05-07T03:02:21;16.40;99.90
5278;DHT22;2662;51.194;6.614;2023-05-07T03:04:50;16.40;99.90
5278;DHT22;2662;51.194;6.614;2023-05-07T03:07:18;16.40;99.90
5278;DHT22;2662;51.194;6.614;2023-05-07T03:09:46;16.30;99.90
5278;DHT22;2662;51.194;6.614;2023-05-07T03:12:13;16.30;99.90
5278;DHT22;2662;51.194;6.614;2023-05-07T03:14:41;16.30;99.90
5278;DHT22;2662;51.194;6.614;2023-05-07T03:17:08;16.30;99.90
5278;DHT22;2662;51.194;6.614;2023-05-07T03:19:35;16.30;99.90
5278;DHT22;2662;51.194;6.614;2023-05-07T03:22:04;16.30;99.90
5278;DHT22;2662;51.194;6.614;2023-05-07T03:24:31;16.30;99.90
5278;DHT22;2662;51.194;6.614;2023-05-07T03:26:59;16.30;99.90
5278;DHT22;2662;51.194;6.614;2023-05-07T03:29:27;16.30;99.90
5278;DHT22;2662;51.194;6.614;2023-05-07T03:31:54;16.40;99.90
5278;DHT22;2662;51.194;6.614;2023-05-07T03:34:22;16.30;99.90
5278;DHT22;2662;51.194;6.614;2023-05-07T03:36:50;16.40;99.90
5278;DHT22;2662;51.194;6.614;2023-05-07T03:39:20;16.40;99.90
5278;DHT22;2662;51.194;6.614;2023-05-07T03:41:47;16.40;99.90
5278;DHT22;2662;51.194;6.614;2023-05-07T03:44:15;16.50;99.90
5278;DHT22;2662;51.194;6.614;2023-05-07T03:46:43;16.50;99.90
5278;DHT22;2662;51.194;6.614;2023-05-07T03:49:11;16.50;99.90
5278;DHT22;2662;51.194;6.614;2023-05-07T03:51:39;16.60;99.90
5278;DHT22;2662;51.194;6.614;2023-05-07T03:54:06;16.60;99.90
5278;DHT22;2662;51.194;6.614;2023-05-07T03:56:35;16.50;99.90
5278;DHT22;2662;51.194;6.614;2023-05-07T03:59:04;16.50;99.90
5278;DHT22;2662;51.194;6.614;2023-05-07T04:01:32;16.50;99.90
5278;DHT22;2662;51.194;6.614;2023-05-07T04:04:01;16.40;99.90
5278;DHT22;2662;51.194;6.614;2023-05-07T04:06:29;16.40;99.90
5278;DHT22;2662;51.194;6.614;2023-05-07T04:08:58;16.50;99.90
5278;DHT22;2662;51.194;6.614;2023-05-07T04:11:27;16.50;99.90
5278;DHT22;2662;51.194;6.614;2023-05-07T04:13:58;16.50;99.90
5278;DHT22;2662;51.194;6.614;2023-05-07T04:16:26;16.40;99.90
5278;DHT22;2662;51.194;6.614;2023-05-07T04:18:54;16.50;99.90
5278;DHT22;2662;51.194;6.614;2023-05-07T04:21:23;16.50;99.90
5278;DHT22;2662;51.194;6.614;2023-05-07T04:23:52;16.50;99.90
5278;DHT22;2662;51.194;6.614;2023-05-07T04:26:19;16.50;99.90
5278;DHT22;2662;51.194;6.614;2023-05-07T04:28:49;16.50;99.90
5278;DHT22;2662;51.194;6.614;2023-05-07T04:31:18;16.60;99.90
5278;DHT22;2662;51.194;6.614;2023-05-07T04:33:47;16.70;99.90
5278;DHT22;2662;51.194;6.614;2023-05-07T04:36:15;16.70;99.90
5278;DHT22;2662;51.194;6.614;2023-05-07T04:38:43;16.80;99.90
5278;DHT22;2662;51.194;6.614;2023-05-07T04:41:13;16.80;99.90
5278;DHT22;2662;51.194;6.614;2023-05-07T04:43:42;16.80;99.90
5278;DHT22;2662;51.194;6.614;2023-05-07T04:46:10;16.90;99.90
5278;DHT22;2662;51.194;6.614;2023-05-07T04:48:40;16.90;99.90
5278;DHT22;2662;51.194;6.614;2023-05-07T04:51:08;17.00;99.90
5278;DHT22;2662;51.194;6.614;2023-05-07T04:53:37;17.00;99.90
5278;DHT22;2662;51.194;6.614;2023-05-07T04:56:06;17.10;99.90
5278;DHT22;2662;51.194;6.614;2023-05-07T04:58:34;17.20;99.90
5278;DHT22;2662;51.194;6.614;2023-05-07T05:01:02;17.20;99.90
5278;DHT22;2662;51.194;6.614;2023-05-07T05:03:31;17.20;99.90
5278;DHT22;2662;51.194;6.614;2023-05-07T05:06:01;17.30;99.90
5278;DHT22;2662;51.194;6.614;2023-05-07T05:08:30;17.30;99.90
5278;DHT22;2662;51.194;6.614;2023-05-07T05:10:59;17.40;99.90
5278;DHT22;2662;51.194;6.614;2023-05-07T05:13:28;17.40;99.90
5278;DHT22;2662;51.194;6.614;2023-05-07T05:15:56;17.50;99.90
5278;DHT22;2662;51.194;6.614;2023-05-07T05:18:23;17.50;99.90
5278;DHT22;2662;51.194;6.614;2023-05-07T05:20:51;17.70;99.90
5278;DHT22;2662;51.194;6.614;2023-05-07T05:23:21;17.70;99.90
5278;DHT22;2662;51.194;6.614;2023-05-07T05:25:49;17.70;99.90
5278;DHT22;2662;51.194;6.614;2023-05-07T05:28:16;17.90;99.90
5278;DHT22;2662;51.194;6.614;2023-05-07T05:30:44;18.00;99.90
5278;DHT22;2662;51.194;6.614;2023-05-07T05:33:12;18.10;99.90
5278;DHT22;2662;51.194;6.614;2023-05-07T05:35:42;18.10;99.90
5278;DHT22;2662;51.194;6.614;2023-05-07T05:38:10;18.20;99.90
5278;DHT22;2662;51.194;6.614;2023-05-07T05:40:39;18.30;99.90
5278;DHT22;2662;51.194;6.614;2023-05-07T05:43:06;18.40;99.90
5278;DHT22;2662;51.194;6.614;2023-05-07T05:45:34;18.50;99.90
5278;DHT22;2662;51.194;6.614;2023-05-07T05:48:02;18.70;99.90
5278;DHT22;2662;51.194;6.614;2023-05-07T05:50:30;18.70;99.90
5278;DHT22;2662;51.194;6.614;2023-05-07T05:52:58;18.70;99.90
5278;DHT22;2662;51.194;6.614;2023-05-07T05:55:26;18.70;99.90
5278;DHT22;2662;51.194;6.614;2023-05-07T05:57:56;18.80;99.90
5278;DHT22;2662;51.194;6.614;2023-05-07T06:00:24;18.70;99.90
5278;DHT22;2662;51.194;6.614;2023-05-07T06:02:52;18.90;99.90
5278;DHT22;2662;51.194;6.614;2023-05-07T06:05:20;19.10;99.90
5278;DHT22;2662;51.194;6.614;2023-05-07T06:07:47;19.20;99.90
5278;DHT22;2662;51.194;6.614;2023-05-07T06:10:15;19.50;99.90
5278;DHT22;2662;51.194;6.614;2023-05-07T06:12:44;19.70;99.90
5278;DHT22;2662;51.194;6.614;2023-05-07T06:15:14;19.80;99.90
5278;DHT22;2662;51.194;6.614;2023-05-07T06:17:41;19.90;99.90
5278;DHT22;2662;51.194;6.614;2023-05-07T06:20:10;20.10;99.90
5278;DHT22;2662;51.194;6.614;2023-05-07T06:22:38;20.10;99.90
5278;DHT22;2662;51.194;6.614;2023-05-07T06:25:08;20.30;99.90
5278;DHT22;2662;51.194;6.614;2023-05-07T06:27:36;20.40;99.90
5278;DHT22;2662;51.194;6.614;2023-05-07T06:30:06;20.70;99.90
5278;DHT22;2662;51.194;6.614;2023-05-07T06:32:36;20.90;99.90
5278;DHT22;2662;51.194;6.614;2023-05-07T06:35:04;21.20;99.90
5278;DHT22;2662;51.194;6.614;2023-05-07T06:37:31;21.60;99.90
5278;DHT22;2662;51.194;6.614;2023-05-07T06:39:59;22.10;99.90
5278;DHT22;2662;51.194;6.614;2023-05-07T06:42:26;23.10;99.90
5278;DHT22;2662;51.194;6.614;2023-05-07T06:44:54;24.00;99.90
5278;DHT22;2662;51.194;6.614;2023-05-07T06:47:22;24.10;99.90
5278;DHT22;2662;51.194;6.614;2023-05-07T06:49:50;24.30;99.90
5278;DHT22;2662;51.194;6.614;2023-05-07T06:52:17;24.90;99.90
5278;DHT22;2662;51.194;6.614;2023-05-07T06:54:46;25.40;99.90
5278;DHT22;2662;51.194;6.614;2023-05-07T06:57:13;25.80;99.90
5278;DHT22;2662;51.194;6.614;2023-05-07T06:59:42;25.90;99.90
5278;DHT22;2662;51.194;6.614;2023-05-07T07:02:09;26.00;99.90
5278;DHT22;2662;51.194;6.614;2023-05-07T07:04:38;26.10;99.90
5278;DHT22;2662;51.194;6.614;2023-05-07T07:07:08;26.30;99.90
5278;DHT22;2662;51.194;6.614;2023-05-07T07:09:36;26.40;99.90
5278;DHT22;2662;51.194;6.614;2023-05-07T07:12:04;26.00;99.90
5278;DHT22;2662;51.194;6.614;2023-05-07T07:14:32;25.60;99.90
5278;DHT22;2662;51.194;6.614;2023-05-07T07:17:00;25.20;99.90
5278;DHT22;2662;51.194;6.614;2023-05-07T07:19:27;25.10;99.90
5278;DHT22;2662;51.194;6.614;2023-05-07T07:21:56;25.30;99.90
5278;DHT22;2662;51.194;6.614;2023-05-07T07:24:25;25.60;99.90
5278;DHT22;2662;51.194;6.614;2023-05-07T07:26:54;25.60;99.90
5278;DHT22;2662;51.194;6.614;2023-05-07T07:29:23;25.60;99.90
5278;DHT22;2662;51.194;6.614;2023-05-07T07:31:52;26.00;99.90
5278;DHT22;2662;51.194;6.614;2023-05-07T07:34:20;26.00;99.90
5278;DHT22;2662;51.194;6.614;2023-05-07T07:36:47;26.10;99.90
5278;DHT22;2662;51.194;6.614;2023-05-07T07:39:15;26.10;99.90
5278;DHT22;2662;51.194;6.614;2023-05-07T07:41:44;26.70;99.90
5278;DHT22;2662;51.194;6.614;2023-05-07T07:44:11;27.30;99.90
5278;DHT22;2662;51.194;6.614;2023-05-07T07:46:40;27.60;99.90
5278;DHT22;2662;51.194;6.614;2023-05-07T07:49:08;27.70;99.90
5278;DHT22;2662;51.194;6.614;2023-05-07T07:51:36;27.70;99.90
5278;DHT22;2662;51.194;6.614;2023-05-07T07:54:03;27.70;99.90
5278;DHT22;2662;51.194;6.614;2023-05-07T07:56:32;27.50;99.90
5278;DHT22;2662;51.194;6.614;2023-05-07T07:59:02;28.20;99.90
5278;DHT22;2662;51.194;6.614;2023-05-07T08:01:30;28.30;99.90
5278;DHT22;2662;51.194;6.614;2023-05-07T08:03:59;28.50;99.90
5278;DHT22;2662;51.194;6.614;2023-05-07T08:06:28;28.50;99.90
5278;DHT22;2662;51.194;6.614;2023-05-07T08:08:57;28.70;99.90
5278;DHT22;2662;51.194;6.614;2023-05-07T08:11:26;29.30;99.90
5278;DHT22;2662;51.194;6.614;2023-05-07T08:13:54;30.10;99.90
5278;DHT22;2662;51.194;6.614;2023-05-07T08:16:23;31.00;99.90
5278;DHT22;2662;51.194;6.614;2023-05-07T08:18:50;31.80;99.30
5278;DHT22;2662;51.194;6.614;2023-05-07T08:21:18;32.50;98.60
5278;DHT22;2662;51.194;6.614;2023-05-07T08:23:46;33.70;96.50
5278;DHT22;2662;51.194;6.614;2023-05-07T08:26:14;34.00;95.10
5278;DHT22;2662;51.194;6.614;2023-05-07T08:28:43;33.90;93.80
5278;DHT22;2662;51.194;6.614;2023-05-07T08:31:10;34.10;92.90
5278;DHT22;2662;51.194;6.614;2023-05-07T08:33:40;34.30;91.90
5278;DHT22;2662;51.194;6.614;2023-05-07T08:36:08;34.10;90.30
5278;DHT22;2662;51.194;6.614;2023-05-07T08:38:36;32.90;90.60
5278;DHT22;2662;51.194;6.614;2023-05-07T08:41:02;32.40;90.80
5278;DHT22;2662;51.194;6.614;2023-05-07T08:43:33;31.60;90.70
5278;DHT22;2662;51.194;6.614;2023-05-07T08:46:04;31.30;92.00
5278;DHT22;2662;51.194;6.614;2023-05-07T08:48:33;30.90;93.10
5278;DHT22;2662;51.194;6.614;2023-05-07T08:51:02;29.70;93.20
5278;DHT22;2662;51.194;6.614;2023-05-07T08:53:31;28.60;95.60
5278;DHT22;2662;51.194;6.614;2023-05-07T08:55:59;28.30;96.20
5278;DHT22;2662;51.194;6.614;2023-05-07T08:58:27;27.80;97.30
5278;DHT22;2662;51.194;6.614;2023-05-07T09:00:56;27.60;98.60
5278;DHT22;2662;51.194;6.614;2023-05-07T09:03:24;27.50;99.90
5278;DHT22;2662;51.194;6.614;2023-05-07T09:05:51;27.60;99.90
5278;DHT22;2662;51.194;6.614;2023-05-07T09:08:24;27.20;99.50
5278;DHT22;2662;51.194;6.614;2023-05-07T09:10:52;27.10;99.90
5278;DHT22;2662;51.194;6.614;2023-05-07T09:13:20;27.10;99.90
5278;DHT22;2662;51.194;6.614;2023-05-07T09:15:49;27.40;99.90
5278;DHT22;2662;51.194;6.614;2023-05-07T09:18:17;28.00;99.90
5278;DHT22;2662;51.194;6.614;2023-05-07T09:20:44;28.40;99.90
5278;DHT22;2662;51.194;6.614;2023-05-07T09:23:11;27.90;99.90
5278;DHT22;2662;51.194;6.614;2023-05-07T09:25:40;27.80;99.90
5278;DHT22;2662;51.194;6.614;2023-05-07T09:28:07;28.30;99.90
5278;DHT22;2662;51.194;6.614;2023-05-07T09:30:36;28.00;98.80
5278;DHT22;2662;51.194;6.614;2023-05-07T09:33:03;27.60;99.90
5278;DHT22;2662;51.194;6.614;2023-05-07T09:35:31;26.80;99.90
5278;DHT22;2662;51.194;6.614;2023-05-07T09:38:00;27.30;99.90
5278;DHT22;2662;51.194;6.614;2023-05-07T09:40:29;27.70;99.90
5278;DHT22;2662;51.194;6.614;2023-05-07T09:43:09;26.90;99.90
5278;DHT22;2662;51.194;6.614;2023-05-07T09:45:37;27.50;99.90
5278;DHT22;2662;51.194;6.614;2023-05-07T09:48:07;27.80;99.90
5278;DHT22;2662;51.194;6.614;2023-05-07T09:50:39;28.10;98.90
5278;DHT22;2662;51.194;6.614;2023-05-07T09:53:10;28.60;98.40
5278;DHT22;2662;51.194;6.614;2023-05-07T09:55:40;29.00;98.10
5278;DHT22;2662;51.194;6.614;2023-05-07T09:58:13;28.50;96.90
5278;DHT22;2662;51.194;6.614;2023-05-07T10:00:43;28.30;97.30
5278;DHT22;2662;51.194;6.614;2023-05-07T10:03:16;28.20;97.60
5278;DHT22;2662;51.194;6.614;2023-05-07T10:05:44;27.70;97.20
5278;DHT22;2662;51.194;6.614;2023-05-07T10:08:13;27.90;97.70
5278;DHT22;2662;51.194;6.614;2023-05-07T10:10:42;28.40;98.10
5278;DHT22;2662;51.194;6.614;2023-05-07T10:13:11;28.90;97.10
5278;DHT22;2662;51.194;6.614;2023-05-07T10:15:38;29.20;95.80
5278;DHT22;2662;51.194;6.614;2023-05-07T10:18:06;29.20;95.30
5278;DHT22;2662;51.194;6.614;2023-05-07T10:20:34;29.00;94.40
5278;DHT22;2662;51.194;6.614;2023-05-07T10:23:04;29.00;94.50
5278;DHT22;2662;51.194;6.614;2023-05-07T10:25:32;29.20;96.00
5278;DHT22;2662;51.194;6.614;2023-05-07T10:28:02;29.60;94.60
5278;DHT22;2662;51.194;6.614;2023-05-07T10:30:40;30.30;94.70
5278;DHT22;2662;51.194;6.614;2023-05-07T10:33:15;30.30;93.30
5278;DHT22;2662;51.194;6.614;2023-05-07T10:35:45;30.30;92.20
5278;DHT22;2662;51.194;6.614;2023-05-07T10:38:13;30.10;90.40
5278;DHT22;2662;51.194;6.614;2023-05-07T10:40:40;29.90;91.80
5278;DHT22;2662;51.194;6.614;2023-05-07T10:43:07;29.80;92.40
5278;DHT22;2662;51.194;6.614;2023-05-07T10:45:35;30.00;91.70
5278;DHT22;2662;51.194;6.614;2023-05-07T10:48:09;30.20;91.50
5278;DHT22;2662;51.194;6.614;2023-05-07T10:50:37;29.60;90.50
5278;DHT22;2662;51.194;6.614;2023-05-07T10:53:24;29.30;91.40
5278;DHT22;2662;51.194;6.614;2023-05-07T10:56:25;29.40;91.70
5278;DHT22;2662;51.194;6.614;2023-05-07T10:58:54;29.50;91.40
5278;DHT22;2662;51.194;6.614;2023-05-07T11:01:52;29.50;92.00
5278;DHT22;2662;51.194;6.614;2023-05-07T11:04:19;29.60;91.50
5278;DHT22;2662;51.194;6.614;2023-05-07T11:10:01;29.70;91.30
5278;DHT22;2662;51.194;6.614;2023-05-07T11:12:49;29.90;93.50
5278;DHT22;2662;51.194;6.614;2023-05-07T11:15:38;30.20;91.20
5278;DHT22;2662;51.194;6.614;2023-05-07T11:18:06;30.30;91.50
5278;DHT22;2662;51.194;6.614;2023-05-07T11:20:53;30.50;91.90
5278;DHT22;2662;51.194;6.614;2023-05-07T11:23:55;30.30;90.60
5278;DHT22;2662;51.194;6.614;2023-05-07T11:26:22;30.20;90.40
5278;DHT22;2662;51.194;6.614;2023-05-07T11:28:51;30.20;91.20
5278;DHT22;2662;51.194;6.614;2023-05-07T11:31:24;29.80;90.50
5278;DHT22;2662;51.194;6.614;2023-05-07T11:33:54;29.90;92.10
5278;DHT22;2662;51.194;6.614;2023-05-07T11:36:23;29.90;91.90
5278;DHT22;2662;51.194;6.614;2023-05-07T11:38:51;29.70;91.60
5278;DHT22;2662;51.194;6.614;2023-05-07T11:41:18;29.70;91.30
5278;DHT22;2662;51.194;6.614;2023-05-07T11:43:57;29.40;91.80
5278;DHT22;2662;51.194;6.614;2023-05-07T11:46:24;28.70;91.50
5278;DHT22;2662;51.194;6.614;2023-05-07T11:48:53;28.70;92.10
5278;DHT22;2662;51.194;6.614;2023-05-07T11:51:22;28.30;93.20
5278;DHT22;2662;51.194;6.614;2023-05-07T11:53:52;28.40;94.00
5278;DHT22;2662;51.194;6.614;2023-05-07T11:56:20;28.50;93.30
5278;DHT22;2662;51.194;6.614;2023-05-07T11:58:49;28.70;93.30
5278;DHT22;2662;51.194;6.614;2023-05-07T12:01:17;28.60;94.00
5278;DHT22;2662;51.194;6.614;2023-05-07T12:03:45;27.80;92.80
5278;DHT22;2662;51.194;6.614;2023-05-07T12:06:16;26.70;93.90
5278;DHT22;2662;51.194;6.614;2023-05-07T12:08:45;26.70;95.20
5278;DHT22;2662;51.194;6.614;2023-05-07T12:11:15;26.70;95.50
5278;DHT22;2662;51.194;6.614;2023-05-07T12:13:44;26.70;95.50
5278;DHT22;2662;51.194;6.614;2023-05-07T12:16:12;26.90;96.30
5278;DHT22;2662;51.194;6.614;2023-05-07T12:18:40;26.90;95.50
5278;DHT22;2662;51.194;6.614;2023-05-07T12:21:08;26.80;95.80
5278;DHT22;2662;51.194;6.614;2023-05-07T12:23:39;26.80;96.20
5278;DHT22;2662;51.194;6.614;2023-05-07T12:26:07;27.00;95.70
5278;DHT22;2662;51.194;6.614;2023-05-07T12:28:39;27.10;95.30
5278;DHT22;2662;51.194;6.614;2023-05-07T12:31:07;27.00;94.40
5278;DHT22;2662;51.194;6.614;2023-05-07T12:33:35;26.80;96.00
5278;DHT22;2662;51.194;6.614;2023-05-07T12:36:06;26.90;97.00
5278;DHT22;2662;51.194;6.614;2023-05-07T12:38:39;26.50;94.10
5278;DHT22;2662;51.194;6.614;2023-05-07T12:41:08;26.20;94.40
5278;DHT22;2662;51.194;6.614;2023-05-07T12:43:36;26.40;94.60
5278;DHT22;2662;51.194;6.614;2023-05-07T12:46:06;26.60;94.20
5278;DHT22;2662;51.194;6.614;2023-05-07T12:48:36;26.70;95.40
5278;DHT22;2662;51.194;6.614;2023-05-07T12:51:05;26.80;95.50
5278;DHT22;2662;51.194;6.614;2023-05-07T12:53:41;26.90;95.20
5278;DHT22;2662;51.194;6.614;2023-05-07T12:56:09;26.90;95.40
5278;DHT22;2662;51.194;6.614;2023-05-07T12:58:36;26.80;96.00
5278;DHT22;2662;51.194;6.614;2023-05-07T13:01:06;26.70;95.90
5278;DHT22;2662;51.194;6.614;2023-05-07T13:03:37;26.40;96.30
5278;DHT22;2662;51.194;6.614;2023-05-07T13:06:06;26.10;97.00
5278;DHT22;2662;51.194;6.614;2023-05-07T13:08:36;26.00;97.30
5278;DHT22;2662;51.194;6.614;2023-05-07T13:11:08;25.90;97.80
5278;DHT22;2662;51.194;6.614;2023-05-07T13:13:37;25.80;97.30
5278;DHT22;2662;51.194;6.614;2023-05-07T13:16:07;25.60;98.30
5278;DHT22;2662;51.194;6.614;2023-05-07T13:18:35;25.60;98.80
5278;DHT22;2662;51.194;6.614;2023-05-07T13:21:03;25.60;99.10
5278;DHT22;2662;51.194;6.614;2023-05-07T13:23:30;25.40;99.20
5278;DHT22;2662;51.194;6.614;2023-05-07T13:25:58;25.30;99.60
5278;DHT22;2662;51.194;6.614;2023-05-07T13:28:27;25.20;99.90
5278;DHT22;2662;51.194;6.614;2023-05-07T13:30:56;25.10;99.90
5278;DHT22;2662;51.194;6.614;2023-05-07T13:33:23;25.10;99.90
5278;DHT22;2662;51.194;6.614;2023-05-07T13:35:51;25.10;99.90
5278;DHT22;2662;51.194;6.614;2023-05-07T13:38:18;25.20;99.70
5278;DHT22;2662;51.194;6.614;2023-05-07T13:40:47;25.00;99.90
5278;DHT22;2662;51.194;6.614;2023-05-07T13:43:14;24.90;99.90
5278;DHT22;2662;51.194;6.614;2023-05-07T13:45:44;24.80;99.90
5278;DHT22;2662;51.194;6.614;2023-05-07T13:48:12;24.70;99.90
5278;DHT22;2662;51.194;6.614;2023-05-07T13:50:40;24.50;99.90
5278;DHT22;2662;51.194;6.614;2023-05-07T13:53:09;24.50;99.90
5278;DHT22;2662;51.194;6.614;2023-05-07T13:55:36;24.60;99.90
5278;DHT22;2662;51.194;6.614;2023-05-07T13:58:03;24.60;99.90
5278;DHT22;2662;51.194;6.614;2023-05-07T14:00:30;24.60;99.90
5278;DHT22;2662;51.194;6.614;2023-05-07T14:03:00;24.50;99.90
5278;DHT22;2662;51.194;6.614;2023-05-07T14:05:28;24.50;99.90
5278;DHT22;2662;51.194;6.614;2023-05-07T14:07:57;24.40;99.90
5278;DHT22;2662;51.194;6.614;2023-05-07T14:10:25;24.30;99.90
5278;DHT22;2662;51.194;6.614;2023-05-07T14:12:52;24.20;99.90
5278;DHT22;2662;51.194;6.614;2023-05-07T14:15:20;24.10;99.90
5278;DHT22;2662;51.194;6.614;2023-05-07T14:17:48;23.80;99.90
5278;DHT22;2662;51.194;6.614;2023-05-07T14:20:17;23.50;99.90
5278;DHT22;2662;51.194;6.614;2023-05-07T14:22:45;22.70;99.90
5278;DHT22;2662;51.194;6.614;2023-05-07T14:25:13;21.70;99.90
5278;DHT22;2662;51.194;6.614;2023-05-07T14:27:40;21.20;99.90
5278;DHT22;2662;51.194;6.614;2023-05-07T14:30:09;20.90;99.90
5278;DHT22;2662;51.194;6.614;2023-05-07T14:32:37;20.70;99.90
5278;DHT22;2662;51.194;6.614;2023-05-07T14:35:07;20.70;99.90
5278;DHT22;2662;51.194;6.614;2023-05-07T14:37:36;20.50;99.90
5278;DHT22;2662;51.194;6.614;2023-05-07T14:40:06;20.40;99.90
5278;DHT22;2662;51.194;6.614;2023-05-07T14:42:35;20.10;99.90
5278;DHT22;2662;51.194;6.614;2023-05-07T14:45:06;19.70;99.90
5278;DHT22;2662;51.194;6.614;2023-05-07T14:47:34;19.60;99.90
5278;DHT22;2662;51.194;6.614;2023-05-07T14:50:02;19.40;99.90
5278;DHT22;2662;51.194;6.614;2023-05-07T14:52:29;18.80;99.90
5278;DHT22;2662;51.194;6.614;2023-05-07T14:54:59;18.30;99.90
5278;DHT22;2662;51.194;6.614;2023-05-07T14:57:28;18.20;99.90
5278;DHT22;2662;51.194;6.614;2023-05-07T15:00:00;18.10;99.90
5278;DHT22;2662;51.194;6.614;2023-05-07T15:02:30;18.00;99.90
5278;DHT22;2662;51.194;6.614;2023-05-07T15:04:59;17.90;99.90
5278;DHT22;2662;51.194;6.614;2023-05-07T15:07:27;17.90;99.90
5278;DHT22;2662;51.194;6.614;2023-05-07T15:09:55;17.90;99.90
5278;DHT22;2662;51.194;6.614;2023-05-07T15:12:24;17.90;99.90
5278;DHT22;2662;51.194;6.614;2023-05-07T15:14:51;17.80;99.90
5278;DHT22;2662;51.194;6.614;2023-05-07T15:17:18;17.90;99.90
5278;DHT22;2662;51.194;6.614;2023-05-07T15:19:46;18.10;99.90
5278;DHT22;2662;51.194;6.614;2023-05-07T15:22:14;18.30;99.90
5278;DHT22;2662;51.194;6.614;2023-05-07T15:24:42;18.20;99.90
5278;DHT22;2662;51.194;6.614;2023-05-07T15:27:10;18.20;99.90
5278;DHT22;2662;51.194;6.614;2023-05-07T15:29:40;18.20;99.90
5278;DHT22;2662;51.194;6.614;2023-05-07T15:32:09;18.10;99.90
5278;DHT22;2662;51.194;6.614;2023-05-07T15:34:37;18.20;99.90
5278;DHT22;2662;51.194;6.614;2023-05-07T15:37:05;18.40;99.90
5278;DHT22;2662;51.194;6.614;2023-05-07T15:39:32;18.30;99.90
5278;DHT22;2662;51.194;6.614;2023-05-07T15:42:00;18.60;99.90
5278;DHT22;2662;51.194;6.614;2023-05-07T15:44:29;18.80;99.90
5278;DHT22;2662;51.194;6.614;2023-05-07T15:47:00;19.10;99.90
5278;DHT22;2662;51.194;6.614;2023-05-07T15:49:28;19.40;99.90
5278;DHT22;2662;51.194;6.614;2023-05-07T15:51:57;19.60;99.90
5278;DHT22;2662;51.194;6.614;2023-05-07T15:54:25;19.80;99.90
5278;DHT22;2662;51.194;6.614;2023-05-07T15:56:53;19.90;99.90
5278;DHT22;2662;51.194;6.614;2023-05-07T15:59:20;19.90;99.90
5278;DHT22;2662;51.194;6.614;2023-05-07T16:01:48;19.70;99.90
5278;DHT22;2662;51.194;6.614;2023-05-07T16:04:18;19.80;99.90
5278;DHT22;2662;51.194;6.614;2023-05-07T16:06:46;19.90;99.90
5278;DHT22;2662;51.194;6.614;2023-05-07T16:09:14;19.90;99.90
5278;DHT22;2662;51.194;6.614;2023-05-07T16:11:42;19.80;99.90
5278;DHT22;2662;51.194;6.614;2023-05-07T16:14:10;20.00;99.90
5278;DHT22;2662;51.194;6.614;2023-05-07T16:16:39;20.30;99.90